Time;durP1;ratioP1;P1;durP2;ratioP2;P2;SDS_P1;SDS_P2;PMS_P1;PMS_P2;Temp;Humidity;BMP_temperature;BMP_pressure;BME280_temperature;BME280_humidity;BME280_pressure;Samples;Min_cycle;Max_cycle;Signal;HPM_P1;HPM_P2
2023/03/20 00:01:17;;;;;;;43.05;12.13;;;8.50;99.90;;;;;;5116774;28;20036;-71
2023/03/20 00:03:43;;;;;;;39.22;10.80;;;8.50;99.90;;;;;;5117303;28;20132;-72
2023/03/20 00:06:26;;;;;;;39.83;11.45;;;8.50;99.90;;;;;;5115429;28;20051;-72
2023/03/20 00:08:54;;;;;;;43.47;11.63;;;8.50;99.90;;;;;;5117405;28;20123;-72
2023/03/20 00:11:32;;;;;;;44.97;11.95;;;8.50;99.90;;;;;;5116520;28;20121;-71
2023/03/20 00:14:04;;;;;;;34.17;11.10;;;8.50;99.90;;;;;;5116194;28;20507;-71
2023/03/20 00:16:36;;;;;;;32.70;9.77;;;8.60;99.90;;;;;;5116633;28;20139;-72
2023/03/20 00:19:03;;;;;;;31.00;9.43;;;8.60;99.90;;;;;;5099388;28;20043;-72
2023/03/20 00:21:30;;;;;;;33.13;9.85;;;8.60;99.90;;;;;;5098568;28;20372;-71
2023/03/20 00:23:56;;;;;;;27.52;9.15;;;8.60;99.90;;;;;;5118660;28;20049;-71
2023/03/20 00:26:34;;;;;;;35.28;9.70;;;8.70;99.90;;;;;;5119359;28;20364;-71
2023/03/20 00:29:00;;;;;;;22.83;8.27;;;8.60;99.90;;;;;;5119722;28;20387;-72
2023/03/20 00:31:33;;;;;;;23.00;8.57;;;8.70;99.90;;;;;;5084119;28;20057;-71
2023/03/20 00:34:05;;;;;;;26.52;7.43;;;8.70;99.90;;;;;;5117465;28;20055;-71
2023/03/20 00:36:31;;;;;;;31.30;8.07;;;8.70;99.90;;;;;;5098538;28;20064;-73
2023/03/20 00:38:57;;;;;;;23.42;8.20;;;8.70;99.90;;;;;;5115706;28;20043;-71
2023/03/20 00:41:28;;;;;;;32.72;8.52;;;8.70;99.90;;;;;;5081629;28;20139;-72
2023/03/20 00:44:32;;;;;;;30.88;9.40;;;8.70;99.90;;;;;;5115573;28;20092;-73
2023/03/20 00:47:10;;;;;;;29.88;8.23;;;8.60;99.90;;;;;;5097921;28;20555;-71
2023/03/20 00:49:37;;;;;;;34.67;8.13;;;8.60;99.90;;;;;;5115305;28;20593;-72
2023/03/20 00:52:04;;;;;;;27.57;6.93;;;8.60;99.90;;;;;;5115398;28;20522;-72
2023/03/20 00:54:30;;;;;;;22.52;7.22;;;8.60;99.90;;;;;;5116469;28;20236;-75
2023/03/20 00:57:08;;;;;;;26.45;6.32;;;8.50;99.90;;;;;;5115664;28;20093;-72
2023/03/20 00:59:38;;;;;;;21.35;5.88;;;8.50;99.90;;;;;;5097852;28;20047;-71
2023/03/20 01:02:04;;;;;;;18.65;6.28;;;8.40;99.90;;;;;;5115558;28;20176;-72
2023/03/20 01:04:36;;;;;;;19.17;5.82;;;8.40;99.90;;;;;;5115445;28;20063;-71
2023/03/20 01:07:02;;;;;;;18.17;5.43;;;8.40;99.90;;;;;;5115431;28;20048;-71
2023/03/20 01:09:28;;;;;;;20.10;5.43;;;8.40;99.90;;;;;;5115340;28;20055;-71
2023/03/20 01:11:54;;;;;;;18.77;6.05;;;8.40;99.90;;;;;;5115279;28;20039;-71
2023/03/20 01:14:19;;;;;;;18.65;5.78;;;8.40;99.90;;;;;;5114932;28;20093;-71
2023/03/20 01:16:45;;;;;;;24.77;5.82;;;8.40;99.90;;;;;;5096804;28;20055;-71
2023/03/20 01:19:13;;;;;;;18.58;5.10;;;8.40;99.90;;;;;;5115800;28;20103;-71
2023/03/20 01:21:39;;;;;;;16.48;4.82;;;8.30;99.90;;;;;;5115488;28;20086;-72
2023/03/20 01:24:05;;;;;;;22.95;5.38;;;8.30;99.90;;;;;;5115612;28;20043;-72
2023/03/20 01:26:36;;;;;;;18.10;5.35;;;8.30;99.90;;;;;;5114965;28;20494;-71
2023/03/20 01:29:03;;;;;;;21.17;4.72;;;8.30;99.90;;;;;;5097538;28;20051;-72
2023/03/20 01:31:29;;;;;;;18.92;4.95;;;8.20;99.90;;;;;;5114913;28;20039;-72
2023/03/20 01:33:55;;;;;;;18.45;5.20;;;8.20;99.90;;;;;;5114534;28;20180;-73
2023/03/20 01:36:23;;;;;;;22.02;5.60;;;8.20;99.90;;;;;;5114825;28;20510;-72
2023/03/20 01:38:55;;;;;;;;;;;8.20;99.90;;;;;;5097262;28;20421;-71
2023/03/20 01:41:23;;;;;;;24.60;5.88;;;8.20;99.90;;;;;;5114588;28;19927;-71
2023/03/20 01:43:49;;;;;;;21.05;5.35;;;8.20;99.90;;;;;;5114744;28;20047;-71
2023/03/20 01:46:27;;;;;;;19.77;5.35;;;8.20;99.90;;;;;;5115198;28;20050;-71
2023/03/20 01:48:53;;;;;;;20.42;6.43;;;8.20;99.90;;;;;;5115163;28;20448;-72
2023/03/20 01:51:31;;;;;;;28.20;8.30;;;8.30;99.90;;;;;;5096830;28;20062;-72
2023/03/20 01:53:59;;;;;;;22.88;6.97;;;8.20;99.90;;;;;;5097385;28;20040;-71
2023/03/20 01:56:30;;;;;;;25.85;7.40;;;8.20;99.90;;;;;;5114477;28;20079;-71
2023/03/20 01:59:00;;;;;;;26.85;7.90;;;8.20;99.90;;;;;;5096554;28;20047;-71
2023/03/20 02:01:26;;;;;;;26.15;7.93;;;8.20;99.90;;;;;;5114798;28;20054;-71
2023/03/20 02:03:53;;;;;;;22.55;7.50;;;8.20;99.90;;;;;;5096168;28;20075;-72
2023/03/20 02:06:20;;;;;;;21.13;7.63;;;8.20;99.90;;;;;;5114628;28;20048;-71
2023/03/20 02:08:50;;;;;;;21.42;7.35;;;8.20;99.90;;;;;;5114211;28;20047;-72
2023/03/20 02:11:21;;;;;;;26.70;8.82;;;8.30;99.90;;;;;;5096396;28;20035;-71
2023/03/20 02:13:49;;;;;;;25.88;8.88;;;8.30;99.90;;;;;;5114242;28;20047;-72
2023/03/20 02:16:16;;;;;;;26.42;8.52;;;8.20;99.90;;;;;;5114156;28;20154;-72
2023/03/20 02:18:48;;;;;;;30.85;9.75;;;8.20;99.90;;;;;;5114094;28;20039;-75
2023/03/20 02:21:25;;;;;;;31.73;9.52;;;8.30;99.90;;;;;;5114521;28;20035;-71
2023/03/20 02:24:07;;;;;;;33.58;9.32;;;8.30;99.90;;;;;;5113729;28;20578;-73
2023/03/20 02:27:18;;;;;;;28.77;10.18;;;8.30;99.90;;;;;;5113722;28;20460;-71
2023/03/20 02:29:50;;;;;;;35.40;10.68;;;8.30;99.90;;;;;;5113994;28;20471;-73
2023/03/20 02:32:34;;;;;;;40.08;11.60;;;8.30;99.90;;;;;;5114056;28;20047;-72
2023/03/20 02:35:08;;;;;;;30.67;10.93;;;8.20;99.90;;;;;;5095394;28;20511;-71
2023/03/20 02:38:03;;;;;;;35.90;10.75;;;8.20;99.90;;;;;;5095958;28;20039;-71
2023/03/20 02:40:56;;;;;;;34.78;11.82;;;8.20;99.90;;;;;;5102381;28;20492;-70
2023/03/20 02:43:40;;;;;;;41.60;11.80;;;8.20;99.90;;;;;;5096202;28;20092;-72
2023/03/20 02:46:20;;;;;;;36.67;10.80;;;8.20;99.90;;;;;;5114395;28;20111;-71
2023/03/20 02:49:15;;;;;;;38.25;11.98;;;8.30;99.90;;;;;;5113873;28;20050;-71
2023/03/20 02:51:58;;;;;;;36.92;11.52;;;8.30;99.90;;;;;;5113759;28;20048;-71
2023/03/20 02:54:58;;;;;;;38.90;12.38;;;8.20;99.90;;;;;;5114562;28;20083;-72
2023/03/20 02:57:37;;;;;;;36.22;10.50;;;8.20;99.90;;;;;;5114219;28;20131;-72
2023/03/20 03:00:08;;;;;;;33.67;10.65;;;8.30;99.90;;;;;;5113994;28;20054;-71
2023/03/20 03:03:01;;;;;;;40.15;10.50;;;8.30;99.90;;;;;;5095436;28;20057;-72
2023/03/20 03:05:36;;;;;;;33.63;11.95;;;8.20;99.90;;;;;;5114263;28;20145;-72
2023/03/20 03:08:04;;;;;;;33.83;9.93;;;8.20;99.90;;;;;;5113915;28;20043;-72
2023/03/20 03:10:35;;;;;;;31.10;9.98;;;8.20;99.90;;;;;;5113607;28;20062;-73
2023/03/20 03:13:05;;;;;;;32.17;9.52;;;8.20;99.90;;;;;;5095514;28;20100;-72
2023/03/20 03:15:35;;;;;;;31.90;9.63;;;8.20;99.90;;;;;;5113672;28;20089;-72
2023/03/20 03:18:05;;;;;;;26.75;8.93;;;8.20;99.90;;;;;;5113512;28;20050;-72
2023/03/20 03:20:34;;;;;;;25.48;8.50;;;8.20;99.90;;;;;;5095318;28;20400;-73
2023/03/20 03:23:01;;;;;;;28.65;8.48;;;8.20;99.90;;;;;;5113715;28;20184;-71
2023/03/20 03:25:32;;;;;;;20.13;6.13;;;8.20;99.90;;;;;;5113991;28;20047;-72
2023/03/20 03:28:03;;;;;;;20.95;7.10;;;8.20;99.90;;;;;;5113382;28;20094;-72
2023/03/20 03:30:36;;;;;;;29.65;7.68;;;8.20;99.90;;;;;;5117184;28;20437;-72
2023/03/20 03:33:10;;;;;;;24.42;7.75;;;8.20;99.90;;;;;;5117695;28;20050;-71
2023/03/20 03:35:36;;;;;;;21.33;6.88;;;8.20;99.90;;;;;;5099070;28;20083;-71
2023/03/20 03:38:21;;;;;;;19.42;6.22;;;8.20;99.90;;;;;;5117069;28;20128;-71
2023/03/20 03:41:10;;;;;;;22.10;6.53;;;8.20;99.90;;;;;;5116109;28;20050;-71
2023/03/20 03:43:46;;;;;;;19.67;6.10;;;8.20;99.90;;;;;;5117100;28;20047;-71
2023/03/20 03:46:34;;;;;;;19.75;6.32;;;8.20;99.90;;;;;;5116974;28;20050;-72
2023/03/20 03:49:02;;;;;;;23.38;5.57;;;8.10;99.90;;;;;;5116932;28;20130;-73
2023/03/20 03:51:32;;;;;;;18.52;5.68;;;8.10;99.90;;;;;;5116890;28;20122;-71
2023/03/20 03:54:21;;;;;;;20.70;5.88;;;8.20;99.90;;;;;;5117386;28;20043;-72
2023/03/20 03:56:49;;;;;;;18.13;5.57;;;8.10;99.90;;;;;;5117614;28;20098;-71
2023/03/20 03:59:30;;;;;;;20.88;6.10;;;8.20;99.90;;;;;;5117525;28;20108;-71
2023/03/20 04:01:57;;;;;;;19.48;5.85;;;8.20;99.90;;;;;;5116673;28;20122;-72
2023/03/20 04:04:25;;;;;;;20.15;6.38;;;8.20;99.90;;;;;;5116684;28;20048;-72
2023/03/20 04:06:51;;;;;;;23.17;5.90;;;8.20;99.90;;;;;;5117087;28;20055;-71
2023/03/20 04:09:17;;;;;;;18.83;6.60;;;8.10;99.90;;;;;;5116216;28;20495;-72
2023/03/20 04:11:47;;;;;;;22.13;6.28;;;8.20;99.90;;;;;;5098367;28;20273;-72
2023/03/20 04:14:12;;;;;;;26.60;6.75;;;8.10;99.90;;;;;;5116373;28;20040;-72
2023/03/20 04:16:38;;;;;;;23.33;6.38;;;8.00;99.90;;;;;;5116306;28;20058;-72
2023/03/20 04:19:04;;;;;;;25.73;6.47;;;7.90;99.90;;;;;;5098219;28;20054;-71
2023/03/20 04:21:30;;;;;;;24.83;6.82;;;7.90;99.90;;;;;;5081226;28;20433;-72
2023/03/20 04:23:56;;;;;;;24.20;6.85;;;7.80;99.90;;;;;;5099186;28;20485;-71
2023/03/20 04:26:22;;;;;;;24.15;7.10;;;7.80;99.90;;;;;;5098112;28;20076;-72
2023/03/20 04:28:48;;;;;;;23.85;7.60;;;7.80;99.90;;;;;;5116808;28;20052;-71
2023/03/20 04:31:13;;;;;;;26.10;7.90;;;7.80;99.90;;;;;;5097985;28;20036;-71
2023/03/20 04:33:39;;;;;;;21.60;7.28;;;7.80;99.90;;;;;;5098168;28;20044;-72
2023/03/20 04:36:05;;;;;;;26.45;7.47;;;7.70;99.90;;;;;;5098105;28;20054;-73
2023/03/20 04:38:31;;;;;;;32.47;9.57;;;7.70;99.90;;;;;;5116018;28;20097;-72
2023/03/20 04:40:57;;;;;;;30.00;9.32;;;7.80;99.90;;;;;;5080479;28;20048;-72
2023/03/20 04:43:22;;;;;;;26.52;8.50;;;7.70;99.90;;;;;;5116381;28;20075;-72
2023/03/20 04:45:48;;;;;;;24.63;8.23;;;7.70;99.90;;;;;;5116007;28;20044;-72
2023/03/20 04:48:14;;;;;;;27.27;8.63;;;7.70;99.90;;;;;;5097641;28;20043;-72
2023/03/20 04:50:40;;;;;;;27.58;7.85;;;7.80;99.90;;;;;;5064250;28;20047;-72
2023/03/20 04:53:05;;;;;;;27.50;8.90;;;7.70;99.90;;;;;;5097119;28;20052;-71
2023/03/20 04:55:31;;;;;;;26.85;9.73;;;7.80;99.90;;;;;;5098424;28;20460;-71
2023/03/20 04:57:57;;;;;;;27.70;8.93;;;7.70;99.90;;;;;;5116258;28;20077;-72
2023/03/20 05:00:23;;;;;;;26.52;8.20;;;7.80;99.90;;;;;;5097475;28;20048;-71
2023/03/20 05:02:49;;;;;;;27.75;9.00;;;7.80;99.90;;;;;;5097820;28;20503;-72
2023/03/20 05:05:15;;;;;;;29.08;9.98;;;7.70;99.90;;;;;;5115349;28;20110;-71
2023/03/20 05:07:41;;;;;;;28.83;10.38;;;7.70;99.90;;;;;;5115418;28;20134;-71
2023/03/20 05:10:07;;;;;;;28.10;9.95;;;7.70;99.90;;;;;;5115102;28;20070;-71
2023/03/20 05:12:33;;;;;;;31.95;11.13;;;7.70;99.90;;;;;;5115382;28;20149;-71
2023/03/20 05:14:59;;;;;;;30.05;9.38;;;7.60;99.90;;;;;;5115218;28;20168;-71
2023/03/20 05:17:24;;;;;;;33.75;10.80;;;7.60;99.90;;;;;;5080655;28;20059;-72
2023/03/20 05:19:50;;;;;;;34.05;10.85;;;7.70;99.90;;;;;;5097008;28;20047;-72
2023/03/20 05:22:17;;;;;;;32.65;10.50;;;7.60;99.90;;;;;;5113805;28;20043;-72
2023/03/20 05:24:43;;;;;;;28.70;10.63;;;7.70;99.90;;;;;;5115671;28;20048;-71
2023/03/20 05:27:09;;;;;;;32.22;11.27;;;7.60;99.90;;;;;;5097337;28;20059;-74
2023/03/20 05:29:35;;;;;;;32.83;11.43;;;7.60;99.90;;;;;;5114903;28;20051;-72
2023/03/20 05:32:00;;;;;;;29.92;10.32;;;7.60;99.90;;;;;;5115462;28;20040;-73
2023/03/20 05:34:26;;;;;;;28.10;10.38;;;7.70;99.90;;;;;;5114830;28;20126;-72
2023/03/20 05:36:53;;;;;;;35.75;12.18;;;7.70;99.90;;;;;;5114921;28;20039;-71
2023/03/20 05:39:19;;;;;;;28.95;10.82;;;7.70;99.90;;;;;;5097107;28;20044;-72
2023/03/20 05:41:45;;;;;;;31.25;10.82;;;7.60;99.90;;;;;;5114937;28;20048;-72
2023/03/20 05:44:10;;;;;;;29.73;10.43;;;7.60;99.90;;;;;;5080984;28;20051;-75
2023/03/20 05:46:36;;;;;;;30.65;10.48;;;7.60;99.90;;;;;;5123347;28;20043;-71
2023/03/20 05:49:02;;;;;;;26.90;10.85;;;7.70;99.90;;;;;;5106525;28;20065;-71
2023/03/20 05:51:28;;;;;;;30.70;10.60;;;7.70;99.90;;;;;;5122639;28;20070;-71
2023/03/20 05:53:53;;;;;;;31.88;9.93;;;7.70;99.90;;;;;;5105162;28;20071;-72
2023/03/20 05:56:19;;;;;;;29.33;10.85;;;7.70;99.90;;;;;;5120238;28;20042;-73
2023/03/20 05:58:45;;;;;;;30.20;10.60;;;7.70;99.90;;;;;;5119355;28;20133;-71
2023/03/20 06:01:10;;;;;;;24.60;9.65;;;7.70;99.90;;;;;;5115360;28;20048;-72
2023/03/20 06:03:36;;;;;;;24.08;8.95;;;7.60;99.90;;;;;;5096513;28;20058;-71
2023/03/20 06:06:03;;;;;;;28.17;9.20;;;7.70;99.90;;;;;;5114556;28;20066;-72
2023/03/20 06:08:29;;;;;;;29.58;8.43;;;7.70;99.90;;;;;;5096282;28;20052;-72
2023/03/20 06:10:55;;;;;;;25.40;9.10;;;7.70;99.90;;;;;;5115063;28;20059;-71
2023/03/20 06:13:21;;;;;;;30.13;9.52;;;7.80;99.90;;;;;;5114240;28;20036;-72
2023/03/20 06:15:47;;;;;;;22.77;8.40;;;7.80;99.90;;;;;;5114452;28;20049;-72
2023/03/20 06:18:12;;;;;;;28.60;9.52;;;7.80;99.90;;;;;;5113923;28;20130;-71
2023/03/20 06:20:38;;;;;;;21.10;8.50;;;7.80;99.90;;;;;;5095863;28;20040;-72
2023/03/20 06:23:04;;;;;;;22.50;8.30;;;7.80;99.90;;;;;;5114035;28;20471;-71
2023/03/20 06:25:30;;;;;;;21.10;7.68;;;7.90;99.90;;;;;;5114330;28;20093;-71
2023/03/20 06:27:56;;;;;;;25.38;8.85;;;7.90;99.90;;;;;;5096117;28;20116;-73
2023/03/20 06:30:22;;;;;;;23.67;7.35;;;8.00;99.90;;;;;;5113699;28;20044;-71
2023/03/20 06:32:48;;;;;;;28.40;8.40;;;8.00;99.90;;;;;;5114765;28;20043;-72
2023/03/20 06:35:13;;;;;;;26.88;8.48;;;8.10;99.90;;;;;;5113978;28;20496;-71
2023/03/20 06:37:40;;;;;;;25.30;8.45;;;8.10;99.90;;;;;;5113860;28;20398;-72
2023/03/20 06:40:07;;;;;;;27.38;8.55;;;8.10;99.90;;;;;;5113914;28;20154;-71
2023/03/20 06:42:32;;;;;;;22.00;7.75;;;8.20;99.90;;;;;;5113385;28;20487;-72
2023/03/20 06:44:58;;;;;;;28.50;8.82;;;8.20;99.90;;;;;;5095818;28;20051;-72
2023/03/20 06:47:24;;;;;;;22.02;7.43;;;8.20;99.90;;;;;;5113729;28;20051;-71
2023/03/20 06:49:49;;;;;;;29.17;8.68;;;8.20;99.90;;;;;;5114595;28;20040;-73
2023/03/20 06:52:17;;;;;;;27.15;8.65;;;8.20;99.90;;;;;;5114282;28;20044;-70
2023/03/20 06:54:43;;;;;;;30.00;8.75;;;8.30;99.90;;;;;;5096118;28;20113;-72
2023/03/20 06:57:10;;;;;;;26.97;7.90;;;8.30;99.90;;;;;;5114212;28;20104;-72
2023/03/20 06:59:36;;;;;;;24.23;8.00;;;8.30;99.90;;;;;;5095457;28;20047;-70
2023/03/20 07:02:02;;;;;;;24.58;7.57;;;8.20;99.90;;;;;;5095927;28;20122;-71
2023/03/20 07:04:28;;;;;;;25.08;9.40;;;8.30;99.90;;;;;;5097764;28;20483;-70
2023/03/20 07:06:54;;;;;;;24.63;7.57;;;8.30;99.90;;;;;;5100377;28;20046;-71
2023/03/20 07:09:21;;;;;;;31.10;8.60;;;8.30;99.90;;;;;;5117735;28;20051;-72
2023/03/20 07:11:47;;;;;;;28.42;8.57;;;8.40;99.90;;;;;;5099358;28;20044;-71
2023/03/20 07:14:13;;;;;;;32.63;10.05;;;8.40;99.90;;;;;;5117703;28;20387;-72
2023/03/20 07:16:40;;;;;;;22.88;8.05;;;8.50;99.90;;;;;;5117607;28;20055;-71
2023/03/20 07:19:06;;;;;;;27.10;9.38;;;8.60;99.90;;;;;;5117472;28;20108;-71
2023/03/20 07:21:32;;;;;;;24.35;8.52;;;8.60;99.90;;;;;;5116923;28;20039;-71
2023/03/20 07:23:57;;;;;;;25.15;8.27;;;8.60;99.90;;;;;;5117934;28;20044;-72
2023/03/20 07:26:23;;;;;;;30.25;9.90;;;8.70;99.90;;;;;;5117347;28;20369;-72
2023/03/20 07:28:49;;;;;;;25.02;8.90;;;8.60;99.90;;;;;;5117247;28;20044;-72
2023/03/20 07:31:24;;;;;;;28.30;9.18;;;8.70;99.90;;;;;;5098984;28;20467;-72
2023/03/20 07:33:50;;;;;;;33.58;10.43;;;8.70;99.90;;;;;;5117225;28;20050;-71
2023/03/20 07:36:16;;;;;;;27.08;8.70;;;8.70;99.90;;;;;;5117153;28;20039;-70
2023/03/20 07:38:42;;;;;;;28.75;8.43;;;8.70;99.90;;;;;;5099137;28;20456;-72
2023/03/20 07:41:08;;;;;;;30.77;9.75;;;8.70;99.90;;;;;;5116966;28;20043;-71
2023/03/20 07:43:33;;;;;;;26.33;8.80;;;8.80;99.90;;;;;;5099700;28;20055;-72
2023/03/20 07:46:03;;;;;;;30.35;9.68;;;8.80;99.90;;;;;;5116925;28;20468;-71
2023/03/20 07:48:29;;;;;;;27.52;9.95;;;9.00;99.90;;;;;;5098764;28;20048;-72
2023/03/20 07:50:55;;;;;;;34.85;9.93;;;8.90;99.90;;;;;;5065328;28;20047;-71
2023/03/20 07:53:20;;;;;;;30.63;10.02;;;8.90;99.90;;;;;;5098738;28;20123;-71
2023/03/20 07:55:46;;;;;;;28.67;9.75;;;8.90;99.90;;;;;;5116699;28;20050;-71
2023/03/20 07:58:12;;;;;;;33.78;11.18;;;9.00;99.90;;;;;;5116426;28;20447;-72
2023/03/20 08:00:37;;;;;;;31.08;10.15;;;9.00;99.90;;;;;;5116616;28;20043;-72
2023/03/20 08:03:03;;;;;;;29.80;11.18;;;9.00;99.90;;;;;;5098972;28;20380;-71
2023/03/20 08:05:30;;;;;;;34.60;11.32;;;9.10;99.90;;;;;;5116708;28;20435;-71
2023/03/20 08:07:55;;;;;;;27.58;10.75;;;9.20;99.90;;;;;;5116539;28;20392;-71
2023/03/20 08:10:21;;;;;;;31.30;11.10;;;9.20;99.90;;;;;;5116701;28;20036;-73
2023/03/20 08:12:47;;;;;;;29.23;11.25;;;9.20;99.90;;;;;;5116507;28;20051;-71
2023/03/20 08:15:13;;;;;;;31.63;11.98;;;9.30;99.90;;;;;;5115423;28;20058;-72
2023/03/20 08:17:43;;;;;;;35.50;12.10;;;9.20;99.90;;;;;;5116665;28;20059;-72
2023/03/20 08:20:09;;;;;;;30.88;11.35;;;9.30;99.90;;;;;;5116356;28;20122;-71
2023/03/20 08:22:35;;;;;;;28.98;10.00;;;9.40;99.90;;;;;;5081074;28;20112;-71
2023/03/20 08:25:01;;;;;;;31.52;12.15;;;9.50;99.90;;;;;;5098279;28;20437;-72
2023/03/20 08:27:27;;;;;;;34.50;12.68;;;9.60;99.90;;;;;;5116016;28;20055;-72
2023/03/20 08:29:52;;;;;;;30.42;11.13;;;9.60;99.90;;;;;;5116073;28;20455;-70
2023/03/20 08:32:18;;;;;;;34.95;12.60;;;9.50;99.90;;;;;;5097888;28;20035;-73
2023/03/20 08:34:44;;;;;;;31.63;11.85;;;9.60;99.90;;;;;;5097921;28;20376;-72
2023/03/20 08:37:11;;;;;;;33.78;13.05;;;9.70;99.90;;;;;;5116039;28;20051;-71
2023/03/20 08:39:38;;;;;;;31.48;12.10;;;9.70;99.90;;;;;;5097949;28;20063;-72
2023/03/20 08:42:05;;;;;;;35.38;12.38;;;9.90;99.90;;;;;;5115878;28;20475;-72
2023/03/20 08:44:31;;;;;;;35.00;12.75;;;9.90;99.90;;;;;;5115918;28;20039;-72
2023/03/20 08:46:57;;;;;;;33.40;12.52;;;10.00;99.90;;;;;;5098044;28;20058;-72
2023/03/20 08:49:23;;;;;;;33.75;12.15;;;10.20;99.90;;;;;;5115807;28;20048;-71
2023/03/20 08:51:49;;;;;;;33.47;13.18;;;10.30;99.90;;;;;;5097677;28;20074;-73
2023/03/20 08:54:17;;;;;;;33.63;12.75;;;10.30;99.90;;;;;;5097513;28;20487;-72
2023/03/20 08:56:44;;;;;;;31.20;12.82;;;10.40;99.90;;;;;;5080666;28;20051;-73
2023/03/20 08:59:10;;;;;;;;;;;10.40;99.90;;;;;;5116036;28;20116;-72
2023/03/20 09:01:36;;;;;;;30.88;12.75;;;10.40;99.90;;;;;;5115539;28;20022;-71
2023/03/20 09:04:02;;;;;;;32.03;10.93;;;10.40;99.90;;;;;;5115508;28;20093;-73
2023/03/20 09:06:28;;;;;;;27.48;11.32;;;10.60;99.90;;;;;;5115964;28;20043;-71
2023/03/20 09:08:55;;;;;;;34.20;12.00;;;10.60;99.90;;;;;;5097118;28;20049;-72
2023/03/20 09:11:22;;;;;;;30.35;11.90;;;10.50;99.90;;;;;;5115377;28;20046;-71
2023/03/20 09:13:48;;;;;;;32.20;11.90;;;10.60;99.90;;;;;;5097106;28;20082;-72
2023/03/20 09:16:14;;;;;;;34.67;11.30;;;10.50;99.90;;;;;;5097218;28;20336;-70
2023/03/20 09:18:39;;;;;;;23.25;8.82;;;10.60;99.90;;;;;;5096947;28;20464;-71
2023/03/20 09:21:06;;;;;;;28.27;10.95;;;10.80;99.90;;;;;;5097069;28;20135;-71
2023/03/20 09:23:31;;;;;;;30.58;11.80;;;10.80;99.90;;;;;;5116246;28;20421;-71
2023/03/20 09:25:57;;;;;;;25.63;10.32;;;10.80;99.90;;;;;;5096627;28;20039;-70
2023/03/20 09:28:23;;;;;;;28.35;10.32;;;11.10;99.90;;;;;;5080095;28;20051;-71
2023/03/20 09:30:53;;;;;;;23.35;10.05;;;11.00;99.90;;;;;;5080817;28;20108;-71
2023/03/20 09:33:19;;;;;;;24.35;10.18;;;11.20;99.90;;;;;;5097175;28;20054;-71
2023/03/20 09:35:45;;;;;;;25.15;9.68;;;11.20;99.90;;;;;;5096681;28;20051;-73
2023/03/20 09:38:12;;;;;;;23.00;10.30;;;11.40;99.90;;;;;;5114517;28;20494;-72
2023/03/20 09:40:51;;;;;;;25.98;9.30;;;11.20;99.90;;;;;;5079976;28;20051;-71
2023/03/20 09:43:28;;;;;;;23.38;9.18;;;11.30;99.90;;;;;;5114691;28;20059;-71
2023/03/20 09:45:57;;;;;;;25.95;10.13;;;11.50;99.90;;;;;;5114963;28;20050;-71
2023/03/20 09:48:29;;;;;;;25.40;10.13;;;11.40;99.90;;;;;;5096749;28;20054;-71
2023/03/20 09:51:09;;;;;;;23.17;9.38;;;11.50;99.90;;;;;;5114242;28;20483;-71
2023/03/20 09:53:40;;;;;;;28.60;9.98;;;11.60;99.90;;;;;;5115157;28;20084;-71
2023/03/20 09:56:22;;;;;;;23.85;9.27;;;11.50;99.90;;;;;;5115104;28;20053;-71
2023/03/20 09:58:56;;;;;;;24.20;10.25;;;11.40;99.90;;;;;;5079847;28;20047;-71
2023/03/20 10:01:46;;;;;;;26.42;10.35;;;11.50;99.90;;;;;;5114383;28;20035;-70
2023/03/20 10:04:12;;;;;;;28.50;9.38;;;11.40;99.90;;;;;;5096733;28;20087;-72
2023/03/20 10:06:37;;;;;;;22.55;9.60;;;11.70;99.90;;;;;;5114298;28;20102;-71
2023/03/20 10:09:17;;;;;;;26.23;10.38;;;11.50;99.90;;;;;;5096124;28;20044;-71
2023/03/20 10:11:55;;;;;;;32.10;9.48;;;11.70;99.90;;;;;;5114760;28;20089;-71
2023/03/20 10:14:44;;;;;;;36.78;9.98;;;11.90;99.90;;;;;;5096213;28;20052;-70
2023/03/20 10:17:38;;;;;;;30.95;8.88;;;12.00;99.90;;;;;;5114491;28;20043;-71
2023/03/20 10:20:10;;;;;;;27.80;9.68;;;12.10;99.90;;;;;;5114301;28;20048;-72
2023/03/20 10:22:48;;;;;;;23.48;8.90;;;11.90;99.90;;;;;;5113969;28;20142;-72
2023/03/20 10:25:39;;;;;;;27.17;9.00;;;11.60;99.90;;;;;;5114219;28;20051;-71
2023/03/20 10:28:31;;;;;;;25.95;9.07;;;11.70;99.90;;;;;;5096255;28;20047;-70
2023/03/20 10:31:03;;;;;;;24.85;9.52;;;11.60;99.90;;;;;;5113649;28;20051;-71
2023/03/20 10:33:37;;;;;;;24.33;8.02;;;11.40;99.90;;;;;;5113909;28;20047;-70
2023/03/20 10:36:12;;;;;;;25.48;8.38;;;11.30;99.90;;;;;;5113571;28;20471;-71
2023/03/20 10:39:14;;;;;;;24.35;8.18;;;11.40;99.90;;;;;;5113786;28;20439;-71
2023/03/20 10:41:48;;;;;;;19.42;7.25;;;11.30;99.90;;;;;;5094828;28;20472;-68
2023/03/20 10:44:24;;;;;;;18.30;7.22;;;11.40;99.90;;;;;;5113781;28;20094;-70
2023/03/20 10:46:55;;;;;;;19.73;7.32;;;11.40;99.90;;;;;;5114656;28;20402;-72
2023/03/20 10:49:39;;;;;;;27.05;7.30;;;11.30;99.90;;;;;;5096069;28;20039;-72
2023/03/20 10:52:21;;;;;;;20.25;6.97;;;11.40;99.90;;;;;;5114165;28;20122;-71
2023/03/20 10:54:59;;;;;;;19.00;6.97;;;11.30;99.90;;;;;;5114600;28;20050;-71
2023/03/20 10:57:28;;;;;;;18.08;7.10;;;11.20;99.90;;;;;;5114543;28;20051;-72
2023/03/20 10:59:56;;;;;;;22.98;8.00;;;11.20;99.90;;;;;;5113551;28;20050;-72
2023/03/20 11:02:26;;;;;;;20.83;7.63;;;11.40;99.90;;;;;;5113546;28;20035;-71
2023/03/20 11:04:52;;;;;;;18.02;7.60;;;11.10;99.90;;;;;;5096246;28;20044;-71
2023/03/20 11:07:25;;;;;;;19.50;7.55;;;11.30;99.90;;;;;;5113207;28;20391;-71
2023/03/20 11:10:12;;;;;;;19.38;6.78;;;11.50;99.90;;;;;;5113307;28;20484;-71
2023/03/20 11:12:47;;;;;;;19.92;7.32;;;11.40;99.90;;;;;;5096370;28;20047;-73
2023/03/20 11:15:45;;;;;;;18.73;7.03;;;11.50;99.90;;;;;;5113589;28;20087;-71
2023/03/20 11:18:14;;;;;;;18.35;7.40;;;11.40;99.90;;;;;;5069305;28;20054;-70
2023/03/20 11:20:56;;;;;;;25.50;7.90;;;11.40;99.90;;;;;;5115967;28;20076;-70
2023/03/20 11:23:48;;;;;;;16.20;6.40;;;11.30;99.90;;;;;;5116804;28;20044;-72
2023/03/20 11:26:30;;;;;;;21.08;7.00;;;11.30;99.90;;;;;;5111257;28;20060;-72
2023/03/20 11:28:57;;;;;;;21.38;6.80;;;11.10;99.90;;;;;;5115649;28;20119;-71
2023/03/20 11:31:39;;;;;;;19.10;7.35;;;11.20;99.90;;;;;;5114813;28;20083;-72
2023/03/20 11:34:19;;;;;;;22.50;8.35;;;11.20;99.90;;;;;;5112975;28;20046;-71
2023/03/20 11:36:56;;;;;;;19.77;7.07;;;10.90;99.90;;;;;;5113397;28;20054;-71
2023/03/20 11:39:32;;;;;;;17.77;6.97;;;11.00;99.90;;;;;;5113983;28;20047;-71
2023/03/20 11:42:00;;;;;;;21.40;6.78;;;11.10;99.90;;;;;;5095493;28;20043;-72
2023/03/20 11:44:29;;;;;;;26.10;8.40;;;11.10;99.90;;;;;;5095545;28;20083;-70
2023/03/20 11:47:10;;;;;;;29.83;7.47;;;11.00;99.90;;;;;;5113214;28;20039;-71
2023/03/20 11:49:49;;;;;;;22.52;8.32;;;11.10;99.90;;;;;;5114168;28;20047;-71
2023/03/20 11:52:20;;;;;;;19.27;7.45;;;11.00;99.90;;;;;;5116886;28;20128;-72
2023/03/20 11:54:49;;;;;;;21.00;7.38;;;11.20;99.90;;;;;;5116959;28;20043;-72
2023/03/20 11:57:44;;;;;;;12.27;5.78;;;11.30;99.90;;;;;;5115691;28;20043;-71
2023/03/20 12:00:09;;;;;;;19.33;6.90;;;11.20;99.90;;;;;;5081874;28;20139;-72
2023/03/20 12:02:38;;;;;;;15.43;6.00;;;11.30;99.90;;;;;;5099478;28;20531;-72
2023/03/20 12:05:28;;;;;;;16.88;5.63;;;11.40;99.90;;;;;;5098560;28;20451;-72
2023/03/20 12:07:58;;;;;;;19.13;4.95;;;11.40;99.90;;;;;;5098611;28;20108;-73
2023/03/20 12:10:30;;;;;;;9.50;4.00;;;11.30;99.90;;;;;;5116648;28;20371;-72
2023/03/20 12:13:23;;;;;;;10.65;4.00;;;11.40;99.90;;;;;;5099008;28;20040;-71
2023/03/20 12:16:01;;;;;;;10.85;3.45;;;11.50;99.90;;;;;;5116108;28;20059;-71
2023/03/20 12:18:59;;;;;;;13.10;3.80;;;11.50;99.90;;;;;;5081813;28;20094;-71
2023/03/20 12:21:43;;;;;;;14.63;4.78;;;11.60;99.90;;;;;;5098396;28;20054;-72
2023/03/20 12:24:21;;;;;;;17.17;4.82;;;11.60;99.90;;;;;;5098303;28;20467;-71
2023/03/20 12:27:10;;;;;;;17.17;5.07;;;11.60;99.90;;;;;;5116299;28;20093;-71
2023/03/20 12:29:46;;;;;;;15.45;4.30;;;11.60;99.90;;;;;;5116955;28;20055;-72
2023/03/20 12:32:22;;;;;;;17.13;4.50;;;11.70;99.90;;;;;;5115771;28;20497;-71
2023/03/20 12:35:04;;;;;;;22.83;5.30;;;11.80;99.90;;;;;;5116135;28;20090;-70
2023/03/20 12:37:31;;;;;;;12.25;4.70;;;11.70;99.90;;;;;;5115892;28;20051;-72
2023/03/20 12:39:59;;;;;;;13.85;5.50;;;11.70;99.90;;;;;;5098016;28;20059;-72
2023/03/20 12:43:08;;;;;;;15.88;4.68;;;11.40;99.90;;;;;;5115873;28;20093;-71
2023/03/20 12:45:40;;;;;;;15.45;5.25;;;11.50;99.90;;;;;;5077027;28;20116;-71
2023/03/20 12:48:30;;;;;;;15.70;4.43;;;11.60;99.90;;;;;;5080975;28;20131;-72
2023/03/20 12:51:18;;;;;;;16.35;5.50;;;11.50;99.90;;;;;;5115726;28;20136;-72
2023/03/20 12:54:08;;;;;;;12.13;4.43;;;11.10;99.90;;;;;;5098346;28;20099;-72
2023/03/20 12:57:05;;;;;;;15.30;5.13;;;11.00;99.90;;;;;;5115612;28;20127;-72
2023/03/20 12:59:52;;;;;;;12.20;4.18;;;10.90;99.90;;;;;;5116138;28;20383;-72
2023/03/20 13:02:51;;;;;;;12.75;4.90;;;10.90;99.90;;;;;;5079788;28;20039;-72